Space — ZCTI8 — position and weather

sailwx.info

Track history (hours):
 
Tides and Currents Weather Stations Pressure Air Temp Water Temp Dewpoint Dewpoint Depression Visibility Wind Speed Wind Dir Waves Ship Positions

Space

Last reported at 2017-Aug-20 06:29 UTC. Time now 2017-Aug-20 17:07 UTC.
Position N 43°25' E 006°57'.

Length 45 m; draft 2.7 m.

Type: Pleasure craft. MMSI: 319917000.

Date/timePositionNaut miles runAvg speedWind from/ knotsBaromVisibWave heightAir tempDewpointWater temp
2017-Aug-20 06:29N 43°25' E 006°57'613.1
2017-Aug-20 06:00N 43°28' E 007°04'3412.5
2017-Aug-20 03:18N 43°46' E 007°44'412.2
2017-Aug-20 03:00N 43°47' E 007°49'612.3
2017-Aug-20 02:30N 43°49' E 007°57'612.4
2017-Aug-20 02:00N 43°51' E 008°05'1412.5
2017-Aug-20 00:52N 43°59' E 008°22'512.6
2017-Aug-20 00:30N 44°01' E 008°27'612.4
2017-Aug-19 23:59N 44°05' E 008°35'612.4
2017-Aug-19 23:30N 44°07' E 008°42'612.7
2017-Aug-19 23:00N 44°10' E 008°50'612.5
2017-Aug-19 22:31N 44°12' E 008°58'612.3
2017-Aug-19 22:00N 44°15' E 009°06'610.7
2017-Aug-19 21:24N 44°18' E 009°14'0 0.7
2017-Aug-19 20:57N 44°18' E 009°13'0 0.1
2017-Aug-19 20:30N 44°18' E 009°13'0 0.0
2017-Aug-19 19:59N 44°18' E 009°13'0 0.0
2017-Aug-19 19:30N 44°18' E 009°13'0 0.0
2017-Aug-19 19:00N 44°18' E 009°13'0 0.0
2017-Aug-19 18:29N 44°18' E 009°13'0 0.0
2017-Aug-19 18:00N 44°18' E 009°13'0 0.0
2017-Aug-19 17:30N 44°18' E 009°13'0 0.0
2017-Aug-19 17:00N 44°18' E 009°13'0 0.0
2017-Aug-19 16:29N 44°18' E 009°13'0 0.0
2017-Aug-19 16:00N 44°18' E 009°13'0 0.0
2017-Aug-19 15:30N 44°18' E 009°13'0 0.0
2017-Aug-19 15:00N 44°18' E 009°13'0 0.0
2017-Aug-19 14:01N 44°18' E 009°13'0 0.0
2017-Aug-19 13:31N 44°18' E 009°13'0 0.0
2017-Aug-19 13:00N 44°18' E 009°13'0 0.0
2017-Aug-19 12:30N 44°18' E 009°13'0 0.0
2017-Aug-19 11:56N 44°18' E 009°13'0 0.0
2017-Aug-19 11:30N 44°18' E 009°13'0 0.0
2017-Aug-19 10:56N 44°18' E 009°13'0 0.0
2017-Aug-19 10:30N 44°18' E 009°13'0 0.0
2017-Aug-19 10:00N 44°18' E 009°13'0 0.0
2017-Aug-19 09:30N 44°18' E 009°13'1 1.0
2017-Aug-19 09:00N 44°18' E 009°13'713.1
2017-Aug-19 08:30N 44°12' E 009°17'713.5
2017-Aug-19 08:00N 44°05' E 009°19'713.6
2017-Aug-19 07:30N 43°59' E 009°21'713.4
2017-Aug-19 07:00N 43°52' E 009°23'713.2
2017-Aug-19 06:30N 43°46' E 009°25'612.8
2017-Aug-19 06:00N 43°40' E 009°27'612.5
2017-Aug-19 05:30N 43°33' E 009°29'612.6
2017-Aug-19 05:01N 43°27' E 009°30'612.4
2017-Aug-19 04:30N 43°21' E 009°32'612.5
2017-Aug-19 04:01N 43°15' E 009°34'612.4
2017-Aug-19 03:30N 43°09' E 009°36'612.7
2017-Aug-19 03:00N 43°03' E 009°37'1512.7
2017-Aug-19 01:50N 42°48' E 009°40'412.2
2017-Aug-19 01:30N 42°44' E 009°40'6012.2
2017-Aug-18 20:34N 41°44' E 009°38'112.0
2017-Aug-18 20:29N 41°43' E 009°38'611.9
2017-Aug-18 19:59N 41°37' E 009°38'1811.8
2017-Aug-18 18:28N 41°19' E 009°37'612.2
2017-Aug-18 18:00N 41°13' E 009°37'612.5
2017-Aug-18 17:30N 41°07' E 009°36'1 0.2
2017-Aug-18 10:43N 41°08' E 009°35'312.2
2017-Aug-18 10:30N 41°10' E 009°32'1 1.1
2017-Aug-18 09:12N 41°09' E 009°30'  
2017-Aug-13 14:23N 40°43' E 014°03'512.0
2017-Aug-13 14:00N 40°43' E 014°09'712.0
2017-Aug-13 13:27N 40°43' E 014°18'6 1.0
2017-Aug-13 07:45N 40°41' E 014°24'312.3
2017-Aug-13 07:30N 40°39' E 014°21'4 0.2
2017-Aug-12 11:37N 40°35' E 014°22'1 6.7
2017-Aug-12 11:30N 40°34' E 014°21'6 0.1
2017-Aug-10 19:51N 40°33' E 014°14'0 0.0
2017-Aug-10 19:06N 40°33' E 014°14'0 0.0
2017-Aug-10 18:57N 40°33' E 014°14'0 0.0
2017-Aug-10 18:15N 40°33' E 014°14'0 0.0
2017-Aug-10 16:21N 40°32' E 014°14'0 0.1
2017-Aug-10 16:00N 40°33' E 014°14'0 0.0
2017-Aug-10 14:42N 40°33' E 014°14'0 0.2
2017-Aug-10 14:31N 40°33' E 014°14'2 4.9
2017-Aug-10 14:00N 40°33' E 014°17'4 1.3
2017-Aug-10 10:42N 40°35' E 014°22'2 6.5
2017-Aug-10 10:23N 40°36' E 014°25'  
Track history (hours):
 
Tides and Currents Weather Stations Pressure Air Temp Water Temp Dewpoint Dewpoint Depression Visibility Wind Speed Wind Dir Waves Ship Positions

Space

Last reported at 2017-Aug-20 06:29 UTC. Time now 2017-Aug-20 17:07 UTC.
Position N 43°25' E 006°57'.

Length 45 m; draft 2.7 m.

Type: Pleasure craft. MMSI: 319917000.

Date/timePositionNaut miles runAvg speedWind from/ knotsBaromVisibWave heightAir tempDewpointWater temp
2017-Aug-20 06:29N 43°25' E 006°57'613.1
2017-Aug-20 06:00N 43°28' E 007°04'3412.5
2017-Aug-20 03:18N 43°46' E 007°44'412.2
2017-Aug-20 03:00N 43°47' E 007°49'612.3
2017-Aug-20 02:30N 43°49' E 007°57'612.4
2017-Aug-20 02:00N 43°51' E 008°05'1412.5
2017-Aug-20 00:52N 43°59' E 008°22'512.6
2017-Aug-20 00:30N 44°01' E 008°27'612.4
2017-Aug-19 23:59N 44°05' E 008°35'612.4
2017-Aug-19 23:30N 44°07' E 008°42'612.7
2017-Aug-19 23:00N 44°10' E 008°50'612.5
2017-Aug-19 22:31N 44°12' E 008°58'612.3
2017-Aug-19 22:00N 44°15' E 009°06'610.7
2017-Aug-19 21:24N 44°18' E 009°14'0 0.7
2017-Aug-19 20:57N 44°18' E 009°13'0 0.1
2017-Aug-19 20:30N 44°18' E 009°13'0 0.0
2017-Aug-19 19:59N 44°18' E 009°13'0 0.0
2017-Aug-19 19:30N 44°18' E 009°13'0 0.0
2017-Aug-19 19:00N 44°18' E 009°13'0 0.0
2017-Aug-19 18:29N 44°18' E 009°13'0 0.0
2017-Aug-19 18:00N 44°18' E 009°13'0 0.0
2017-Aug-19 17:30N 44°18' E 009°13'0 0.0
2017-Aug-19 17:00N 44°18' E 009°13'0 0.0
2017-Aug-19 16:29N 44°18' E 009°13'0 0.0
2017-Aug-19 16:00N 44°18' E 009°13'0 0.0
2017-Aug-19 15:30N 44°18' E 009°13'0 0.0
2017-Aug-19 15:00N 44°18' E 009°13'0 0.0
2017-Aug-19 14:01N 44°18' E 009°13'0 0.0
2017-Aug-19 13:31N 44°18' E 009°13'0 0.0
2017-Aug-19 13:00N 44°18' E 009°13'0 0.0
2017-Aug-19 12:30N 44°18' E 009°13'0 0.0
2017-Aug-19 11:56N 44°18' E 009°13'0 0.0
2017-Aug-19 11:30N 44°18' E 009°13'0 0.0
2017-Aug-19 10:56N 44°18' E 009°13'0 0.0
2017-Aug-19 10:30N 44°18' E 009°13'0 0.0
2017-Aug-19 10:00N 44°18' E 009°13'0 0.0
2017-Aug-19 09:30N 44°18' E 009°13'1 1.0
2017-Aug-19 09:00N 44°18' E 009°13'713.1
2017-Aug-19 08:30N 44°12' E 009°17'713.5
2017-Aug-19 08:00N 44°05' E 009°19'713.6
2017-Aug-19 07:30N 43°59' E 009°21'713.4
2017-Aug-19 07:00N 43°52' E 009°23'713.2
2017-Aug-19 06:30N 43°46' E 009°25'612.8
2017-Aug-19 06:00N 43°40' E 009°27'612.5
2017-Aug-19 05:30N 43°33' E 009°29'612.6
2017-Aug-19 05:01N 43°27' E 009°30'612.4
2017-Aug-19 04:30N 43°21' E 009°32'612.5
2017-Aug-19 04:01N 43°15' E 009°34'612.4
2017-Aug-19 03:30N 43°09' E 009°36'612.7
2017-Aug-19 03:00N 43°03' E 009°37'1512.7
2017-Aug-19 01:50N 42°48' E 009°40'412.2
2017-Aug-19 01:30N 42°44' E 009°40'6012.2
2017-Aug-18 20:34N 41°44' E 009°38'112.0
2017-Aug-18 20:29N 41°43' E 009°38'611.9
2017-Aug-18 19:59N 41°37' E 009°38'1811.8
2017-Aug-18 18:28N 41°19' E 009°37'612.2
2017-Aug-18 18:00N 41°13' E 009°37'612.5
2017-Aug-18 17:30N 41°07' E 009°36'1 0.2
2017-Aug-18 10:43N 41°08' E 009°35'312.2
2017-Aug-18 10:30N 41°10' E 009°32'1 1.1
2017-Aug-18 09:12N 41°09' E 009°30'  
2017-Aug-13 14:23N 40°43' E 014°03'512.0
2017-Aug-13 14:00N 40°43' E 014°09'712.0
2017-Aug-13 13:27N 40°43' E 014°18'6 1.0
2017-Aug-13 07:45N 40°41' E 014°24'312.3
2017-Aug-13 07:30N 40°39' E 014°21'4 0.2
2017-Aug-12 11:37N 40°35' E 014°22'1 6.7
2017-Aug-12 11:30N 40°34' E 014°21'6 0.1
2017-Aug-10 19:51N 40°33' E 014°14'0 0.0
2017-Aug-10 19:06N 40°33' E 014°14'0 0.0
2017-Aug-10 18:57N 40°33' E 014°14'0 0.0
2017-Aug-10 18:15N 40°33' E 014°14'0 0.0
2017-Aug-10 16:21N 40°32' E 014°14'0 0.1
2017-Aug-10 16:00N 40°33' E 014°14'0 0.0
2017-Aug-10 14:42N 40°33' E 014°14'0 0.2
2017-Aug-10 14:31N 40°33' E 014°14'2 4.9
2017-Aug-10 14:00N 40°33' E 014°17'4 1.3
2017-Aug-10 10:42N 40°35' E 014°22'2 6.5
2017-Aug-10 10:23N 40°36' E 014°25'  

Dump ship's entire track history